PWSweather.com
Personal Weather Stations
Station Observations
SEANO
CarmignanoIT

CarmignanoIT

Lat: 43.829667, Lon: 11.02622

Elevation: 142

Station Type: Davis Vantage Pro2

http://www.meteoseano.it

High Low Average
Temperature 92.2°F33.4°C 64.4°F18.0°C 79.9°F26.6°C
Dew Point 66.2°F19.0°C 61.1°F16.2°C 63.6°F17.6°C
Winds 11.5 mph 18.5 kmh Calm Calm 3.0 mph SSE4.8 kmh SSE
Wind Gusts 17.3 mph27.8 kmh -- 5.0 mph8.0 kmh
Humidity 91% 36% 61%
Pressure 30.10 in1019.3 mb 30.00 in1015.9 mb -
Precipitation 0.00 in0.0 mm - -
Hour Temp Dew Point Humidity Winds Wind Gusts Pressure Precip Precip Rate Daily Precip Total
12:00 AM 69.4°F20.8°C 63.3°F17.4°C 81% Calm Calm -- 30.01 in1016.3 mb - 0.00 in0.0 mm 0.00 in0.0 mm
12:10 AM 69.2°F20.7°C 63.1°F17.3°C 81% Calm Calm -- 30.01 in1016.3 mb - 0.00 in0.0 mm 0.00 in0.0 mm
12:15 AM 69.1°F20.6°C 63.4°F17.4°C 82% 1.2 mph WSW1.9 kmh WSW 2.3 mph3.7 kmh 30.02 in1016.6 mb - 0.00 in0.0 mm 0.00 in0.0 mm
12:20 AM 69.0°F20.6°C 63.3°F17.4°C 82% 3.5 mph WSW5.6 kmh WSW 3.5 mph5.6 kmh 30.02 in1016.6 mb - 0.00 in0.0 mm 0.00 in0.0 mm
12:25 AM 68.9°F20.5°C 63.2°F17.3°C 82% Calm Calm 1.2 mph1.9 kmh 30.02 in1016.6 mb - 0.00 in0.0 mm 0.00 in0.0 mm
12:30 AM 68.8°F20.4°C 63.1°F17.3°C 82% Calm Calm 1.2 mph1.9 kmh 30.02 in1016.6 mb - 0.00 in0.0 mm 0.00 in0.0 mm
12:35 AM 68.7°F20.4°C 63.0°F17.2°C 82% 1.2 mph WSW1.9 kmh WSW 2.3 mph3.7 kmh 30.02 in1016.6 mb - 0.00 in0.0 mm 0.00 in0.0 mm
12:40 AM 68.5°F20.3°C 62.8°F17.1°C 82% 1.2 mph WSW1.9 kmh WSW 2.3 mph3.7 kmh 30.02 in1016.6 mb - 0.00 in0.0 mm 0.00 in0.0 mm
12:45 AM 68.4°F20.2°C 62.7°F17.1°C 82% 1.2 mph WSW1.9 kmh WSW 1.2 mph1.9 kmh 30.02 in1016.6 mb - 0.00 in0.0 mm 0.00 in0.0 mm
12:50 AM 68.4°F20.2°C 62.7°F17.1°C 82% Calm Calm -- 30.02 in1016.6 mb - 0.00 in0.0 mm 0.00 in0.0 mm
12:55 AM 68.3°F20.2°C 62.9°F17.2°C 83% Calm Calm -- 30.02 in1016.6 mb - 0.00 in0.0 mm 0.00 in0.0 mm
01:00 AM 68.2°F20.1°C 62.8°F17.1°C 83% Calm Calm -- 30.02 in1016.6 mb - 0.00 in0.0 mm 0.00 in0.0 mm
01:10 AM 68.0°F20.0°C 62.7°F17.1°C 83% Calm Calm -- 30.02 in1016.6 mb - 0.00 in0.0 mm 0.00 in0.0 mm
01:15 AM 68.0°F20.0°C 62.6°F17.0°C 83% Calm Calm -- 30.02 in1016.6 mb - 0.00 in0.0 mm 0.00 in0.0 mm
01:20 AM 67.9°F19.9°C 62.5°F16.9°C 83% Calm Calm -- 30.02 in1016.6 mb - 0.00 in0.0 mm 0.00 in0.0 mm
01:25 AM 67.8°F19.9°C 62.4°F16.9°C 83% Calm Calm -- 30.02 in1016.6 mb - 0.00 in0.0 mm 0.00 in0.0 mm
01:30 AM 67.7°F19.8°C 62.7°F17.1°C 84% Calm Calm 2.3 mph3.7 kmh 30.02 in1016.6 mb - 0.00 in0.0 mm 0.00 in0.0 mm
01:35 AM 67.5°F19.7°C 62.5°F16.9°C 84% 2.3 mph WSW3.7 kmh WSW 3.5 mph5.6 kmh 30.02 in1016.6 mb - 0.00 in0.0 mm 0.00 in0.0 mm
01:40 AM 67.4°F19.7°C 62.4°F16.9°C 84% 1.2 mph WSW1.9 kmh WSW 1.2 mph1.9 kmh 30.02 in1016.6 mb - 0.00 in0.0 mm 0.00 in0.0 mm
01:45 AM 67.3°F19.6°C 62.6°F17.0°C 85% Calm Calm 1.2 mph1.9 kmh 30.02 in1016.6 mb - 0.00 in0.0 mm 0.00 in0.0 mm
01:50 AM 67.2°F19.6°C 62.5°F16.9°C 85% Calm Calm 2.3 mph3.7 kmh 30.02 in1016.6 mb - 0.00 in0.0 mm 0.00 in0.0 mm
01:55 AM 67.1°F19.5°C 62.4°F16.9°C 85% Calm Calm 2.3 mph3.7 kmh 30.02 in1016.6 mb - 0.00 in0.0 mm 0.00 in0.0 mm
02:00 AM 67.0°F19.4°C 62.3°F16.8°C 85% 1.2 mph WSW1.9 kmh WSW 1.2 mph1.9 kmh 30.02 in1016.6 mb - 0.00 in0.0 mm 0.00 in0.0 mm
02:10 AM 66.8°F19.3°C 62.5°F16.9°C 86% Calm Calm -- 30.02 in1016.6 mb - 0.00 in0.0 mm 0.00 in0.0 mm
02:15 AM 66.7°F19.3°C 62.0°F16.7°C 85% 1.2 mph WSW1.9 kmh WSW 2.3 mph3.7 kmh 30.02 in1016.6 mb - 0.00 in0.0 mm 0.00 in0.0 mm
02:20 AM 66.6°F19.2°C 62.3°F16.8°C 86% Calm Calm -- 30.02 in1016.6 mb - 0.00 in0.0 mm 0.00 in0.0 mm
02:25 AM 66.6°F19.2°C 62.3°F16.8°C 86% Calm Calm -- 30.02 in1016.6 mb - 0.00 in0.0 mm 0.00 in0.0 mm
02:30 AM 66.5°F19.2°C 62.2°F16.8°C 86% Calm Calm -- 30.02 in1016.6 mb - 0.00 in0.0 mm 0.00 in0.0 mm
02:35 AM 66.4°F19.1°C 62.1°F16.7°C 86% 1.2 mph WSW1.9 kmh WSW 1.2 mph1.9 kmh 30.02 in1016.6 mb - 0.00 in0.0 mm 0.00 in0.0 mm
02:40 AM 66.4°F19.1°C 62.1°F16.7°C 86% Calm Calm -- 30.02 in1016.6 mb - 0.00 in0.0 mm 0.00 in0.0 mm
02:45 AM 66.3°F19.1°C 62.0°F16.7°C 86% Calm Calm -- 30.02 in1016.6 mb - 0.00 in0.0 mm 0.00 in0.0 mm
02:50 AM 66.2°F19.0°C 62.2°F16.8°C 87% 2.3 mph WSW3.7 kmh WSW 2.3 mph3.7 kmh 30.02 in1016.6 mb - 0.00 in0.0 mm 0.00 in0.0 mm
02:55 AM 66.1°F18.9°C 62.1°F16.7°C 87% 2.3 mph WSW3.7 kmh WSW 3.5 mph5.6 kmh 30.02 in1016.6 mb - 0.00 in0.0 mm 0.00 in0.0 mm
03:00 AM 66.0°F18.9°C 62.0°F16.7°C 87% 1.2 mph WSW1.9 kmh WSW 2.3 mph3.7 kmh 30.02 in1016.6 mb - 0.00 in0.0 mm 0.00 in0.0 mm
03:10 AM 65.8°F18.8°C 61.9°F16.6°C 87% 2.3 mph WSW3.7 kmh WSW 3.5 mph5.6 kmh 30.02 in1016.6 mb - 0.00 in0.0 mm 0.00 in0.0 mm
03:15 AM 65.8°F18.8°C 61.8°F16.6°C 87% Calm Calm -- 30.02 in1016.6 mb - 0.00 in0.0 mm 0.00 in0.0 mm
03:20 AM 65.7°F18.7°C 61.7°F16.5°C 87% 1.2 mph WSW1.9 kmh WSW 2.3 mph3.7 kmh 30.02 in1016.6 mb - 0.00 in0.0 mm 0.00 in0.0 mm
03:25 AM 65.4°F18.6°C 61.8°F16.6°C 88% 2.3 mph WSW3.7 kmh WSW 3.5 mph5.6 kmh 30.02 in1016.6 mb - 0.00 in0.0 mm 0.00 in0.0 mm
03:30 AM 65.3°F18.5°C 61.7°F16.5°C 88% 1.2 mph WSW1.9 kmh WSW 2.3 mph3.7 kmh 30.02 in1016.6 mb - 0.00 in0.0 mm 0.00 in0.0 mm
03:35 AM 65.2°F18.4°C 61.9°F16.6°C 89% 2.3 mph WSW3.7 kmh WSW 3.5 mph5.6 kmh 30.02 in1016.6 mb - 0.00 in0.0 mm 0.00 in0.0 mm
03:40 AM 65.3°F18.5°C 62.0°F16.7°C 89% Calm Calm 1.2 mph1.9 kmh 30.02 in1016.6 mb - 0.00 in0.0 mm 0.00 in0.0 mm
03:45 AM 65.2°F18.4°C 61.9°F16.6°C 89% Calm Calm -- 30.03 in1016.9 mb - 0.00 in0.0 mm 0.00 in0.0 mm
03:50 AM 65.2°F18.4°C 61.9°F16.6°C 89% 1.2 mph WSW1.9 kmh WSW 3.5 mph5.6 kmh 30.03 in1016.9 mb - 0.00 in0.0 mm 0.00 in0.0 mm
03:55 AM 65.1°F18.4°C 61.8°F16.6°C 89% 1.2 mph WSW1.9 kmh WSW 2.3 mph3.7 kmh 30.02 in1016.6 mb - 0.00 in0.0 mm 0.00 in0.0 mm
04:00 AM 65.0°F18.3°C 61.7°F16.5°C 89% Calm Calm 1.2 mph1.9 kmh 30.03 in1016.9 mb - 0.00 in0.0 mm 0.00 in0.0 mm
04:10 AM 64.9°F18.3°C 61.6°F16.4°C 89% Calm Calm 1.2 mph1.9 kmh 30.03 in1016.9 mb - 0.00 in0.0 mm 0.00 in0.0 mm
04:15 AM 64.9°F18.3°C 61.6°F16.4°C 89% Calm Calm -- 30.03 in1016.9 mb - 0.00 in0.0 mm 0.00 in0.0 mm
04:20 AM 64.8°F18.2°C 61.5°F16.4°C 89% Calm Calm -- 30.03 in1016.9 mb - 0.00 in0.0 mm 0.00 in0.0 mm
04:25 AM 64.7°F18.2°C 61.4°F16.3°C 89% Calm Calm -- 30.03 in1016.9 mb - 0.00 in0.0 mm 0.00 in0.0 mm
04:30 AM 64.7°F18.2°C 61.4°F16.3°C 89% Calm Calm -- 30.03 in1016.9 mb - 0.00 in0.0 mm 0.00 in0.0 mm
04:35 AM 64.7°F18.2°C 61.4°F16.3°C 89% Calm Calm 1.2 mph1.9 kmh 30.03 in1016.9 mb - 0.00 in0.0 mm 0.00 in0.0 mm
04:40 AM 64.6°F18.1°C 61.3°F16.3°C 89% 2.3 mph WSW3.7 kmh WSW 3.5 mph5.6 kmh 30.03 in1016.9 mb - 0.00 in0.0 mm 0.00 in0.0 mm
04:45 AM 64.6°F18.1°C 61.3°F16.3°C 89% 1.2 mph WSW1.9 kmh WSW 2.3 mph3.7 kmh 30.03 in1016.9 mb - 0.00 in0.0 mm 0.00 in0.0 mm
04:50 AM 64.5°F18.1°C 61.2°F16.2°C 89% 1.2 mph WSW1.9 kmh WSW 2.3 mph3.7 kmh 30.03 in1016.9 mb - 0.00 in0.0 mm 0.00 in0.0 mm
04:55 AM 64.4°F18.0°C 61.1°F16.2°C 89% Calm Calm 2.3 mph3.7 kmh 30.03 in1016.9 mb - 0.00 in0.0 mm 0.00 in0.0 mm
05:00 AM 64.4°F18.0°C 61.1°F16.2°C 89% Calm Calm -- 30.04 in1017.3 mb - 0.00 in0.0 mm 0.00 in0.0 mm
05:10 AM 64.4°F18.0°C 61.4°F16.3°C 90% Calm Calm -- 30.04 in1017.3 mb - 0.00 in0.0 mm 0.00 in0.0 mm
05:15 AM 64.5°F18.1°C 61.5°F16.4°C 90% Calm Calm -- 30.03 in1016.9 mb - 0.00 in0.0 mm 0.00 in0.0 mm
05:20 AM 64.6°F18.1°C 61.6°F16.4°C 90% Calm Calm -- 30.03 in1016.9 mb - 0.00 in0.0 mm 0.00 in0.0 mm
05:25 AM 64.7°F18.2°C 61.7°F16.5°C 90% Calm Calm -- 30.04 in1017.3 mb - 0.00 in0.0 mm 0.00 in0.0 mm
05:30 AM 64.9°F18.3°C 61.9°F16.6°C 90% Calm Calm -- 30.03 in1016.9 mb - 0.00 in0.0 mm 0.00 in0.0 mm
05:35 AM 65.1°F18.4°C 62.1°F16.7°C 90% Calm Calm -- 30.03 in1016.9 mb - 0.00 in0.0 mm 0.00 in0.0 mm
05:40 AM 65.5°F18.6°C 62.8°F17.1°C 91% Calm Calm -- 30.04 in1017.3 mb - 0.00 in0.0 mm 0.00 in0.0 mm
05:45 AM 66.0°F18.9°C 62.9°F17.2°C 90% Calm Calm -- 30.04 in1017.3 mb - 0.00 in0.0 mm 0.00 in0.0 mm
05:50 AM 66.3°F19.1°C 63.3°F17.4°C 90% Calm Calm -- 30.04 in1017.3 mb - 0.00 in0.0 mm 0.00 in0.0 mm
05:55 AM 66.6°F19.2°C 63.6°F17.6°C 90% Calm Calm -- 30.04 in1017.3 mb - 0.00 in0.0 mm 0.00 in0.0 mm
06:00 AM 66.9°F19.4°C 63.9°F17.7°C 90% Calm Calm -- 30.04 in1017.3 mb - 0.00 in0.0 mm 0.00 in0.0 mm
06:10 AM 67.6°F19.8°C 64.6°F18.1°C 90% Calm Calm -- 30.04 in1017.3 mb - 0.00 in0.0 mm 0.00 in0.0 mm
06:15 AM 68.3°F20.2°C 64.9°F18.3°C 89% Calm Calm -- 30.04 in1017.3 mb - 0.00 in0.0 mm 0.00 in0.0 mm
06:20 AM 68.7°F20.4°C 65.0°F18.3°C 88% Calm Calm 1.2 mph1.9 kmh 30.04 in1017.3 mb - 0.00 in0.0 mm 0.00 in0.0 mm
06:25 AM 69.4°F20.8°C 65.0°F18.3°C 86% 1.2 mph WSW1.9 kmh WSW 2.3 mph3.7 kmh 30.04 in1017.3 mb - 0.00 in0.0 mm 0.00 in0.0 mm
06:30 AM 70.1°F21.2°C 64.7°F18.2°C 83% 1.2 mph WSW1.9 kmh WSW 2.3 mph3.7 kmh 30.04 in1017.3 mb - 0.00 in0.0 mm 0.00 in0.0 mm
06:35 AM 70.6°F21.4°C 64.2°F17.9°C 80% Calm Calm 1.2 mph1.9 kmh 30.04 in1017.3 mb - 0.00 in0.0 mm 0.00 in0.0 mm
06:40 AM 71.0°F21.7°C 64.2°F17.9°C 79% Calm Calm 2.3 mph3.7 kmh 30.04 in1017.3 mb - 0.00 in0.0 mm 0.00 in0.0 mm
06:45 AM 71.3°F21.8°C 64.5°F18.1°C 79% 1.2 mph WSW1.9 kmh WSW 2.3 mph3.7 kmh 30.04 in1017.3 mb - 0.00 in0.0 mm 0.00 in0.0 mm
06:50 AM 71.8°F22.1°C 64.6°F18.1°C 78% 1.2 mph WSW1.9 kmh WSW 2.3 mph3.7 kmh 30.05 in1017.6 mb - 0.00 in0.0 mm 0.00 in0.0 mm
06:55 AM 72.1°F22.3°C 64.1°F17.8°C 76% Calm Calm -- 30.04 in1017.3 mb - 0.00 in0.0 mm 0.00 in0.0 mm
07:00 AM 72.4°F22.4°C 64.4°F18.0°C 76% Calm Calm -- 30.04 in1017.3 mb - 0.00 in0.0 mm 0.00 in0.0 mm
07:10 AM 73.4°F23.0°C 64.2°F17.9°C 73% Calm Calm 1.2 mph1.9 kmh 30.04 in1017.3 mb - 0.00 in0.0 mm 0.00 in0.0 mm
07:15 AM 73.9°F23.3°C 64.7°F18.2°C 73% Calm Calm -- 30.04 in1017.3 mb - 0.00 in0.0 mm 0.00 in0.0 mm
07:20 AM 74.4°F23.6°C 65.2°F18.4°C 73% Calm Calm 1.2 mph1.9 kmh 30.04 in1017.3 mb - 0.00 in0.0 mm 0.00 in0.0 mm
07:25 AM 74.8°F23.8°C 64.8°F18.2°C 71% 1.2 mph WSW1.9 kmh WSW 2.3 mph3.7 kmh 30.04 in1017.3 mb - 0.00 in0.0 mm 0.00 in0.0 mm
07:30 AM 75.0°F23.9°C 65.0°F18.3°C 71% Calm Calm 1.2 mph1.9 kmh 30.04 in1017.3 mb - 0.00 in0.0 mm 0.00 in0.0 mm
07:35 AM 75.2°F24.0°C 64.8°F18.2°C 70% Calm Calm -- 30.04 in1017.3 mb - 0.00 in0.0 mm 0.00 in0.0 mm
07:40 AM 75.5°F24.2°C 64.6°F18.1°C 69% 1.2 mph WSW1.9 kmh WSW 3.5 mph5.6 kmh 30.04 in1017.3 mb - 0.00 in0.0 mm 0.00 in0.0 mm
07:45 AM 75.6°F24.2°C 64.8°F18.2°C 69% Calm Calm 2.3 mph3.7 kmh 30.04 in1017.3 mb - 0.00 in0.0 mm 0.00 in0.0 mm
07:50 AM 76.1°F24.5°C 65.2°F18.4°C 69% Calm Calm 2.3 mph3.7 kmh 30.04 in1017.3 mb - 0.00 in0.0 mm 0.00 in0.0 mm
07:55 AM 76.4°F24.7°C 65.1°F18.4°C 68% 1.2 mph WSW1.9 kmh WSW 2.3 mph3.7 kmh 30.04 in1017.3 mb - 0.00 in0.0 mm 0.00 in0.0 mm
08:00 AM 76.8°F24.9°C 65.0°F18.3°C 67% 2.3 mph W3.7 kmh W 2.3 mph3.7 kmh 30.04 in1017.3 mb - 0.00 in0.0 mm 0.00 in0.0 mm
08:10 AM 77.7°F25.4°C 65.0°F18.3°C 65% 1.2 mph W1.9 kmh W 1.2 mph1.9 kmh 30.04 in1017.3 mb - 0.00 in0.0 mm 0.00 in0.0 mm
08:15 AM 78.1°F25.6°C 65.4°F18.6°C 65% Calm Calm 1.2 mph1.9 kmh 30.04 in1017.3 mb - 0.00 in0.0 mm 0.00 in0.0 mm
08:20 AM 78.8°F26.0°C 65.2°F18.4°C 63% Calm Calm 1.2 mph1.9 kmh 30.04 in1017.3 mb - 0.00 in0.0 mm 0.00 in0.0 mm
08:25 AM 79.4°F26.3°C 65.3°F18.5°C 62% Calm Calm 1.2 mph1.9 kmh 30.04 in1017.3 mb - 0.00 in0.0 mm 0.00 in0.0 mm
08:30 AM 80.2°F26.8°C 66.0°F18.9°C 62% Calm Calm 2.3 mph3.7 kmh 30.04 in1017.3 mb - 0.00 in0.0 mm 0.00 in0.0 mm
08:35 AM 80.6°F27.0°C 65.9°F18.8°C 61% Calm Calm 1.2 mph1.9 kmh 30.04 in1017.3 mb - 0.00 in0.0 mm 0.00 in0.0 mm
08:40 AM 81.0°F27.2°C 65.3°F18.5°C 59% 1.2 mph W1.9 kmh W 3.5 mph5.6 kmh 30.04 in1017.3 mb - 0.00 in0.0 mm 0.00 in0.0 mm
08:45 AM 81.5°F27.5°C 65.7°F18.7°C 59% Calm Calm 1.2 mph1.9 kmh 30.04 in1017.3 mb - 0.00 in0.0 mm 0.00 in0.0 mm
08:50 AM 81.9°F27.7°C 66.2°F19.0°C 59% Calm Calm 1.2 mph1.9 kmh 30.04 in1017.3 mb - 0.00 in0.0 mm 0.00 in0.0 mm
08:55 AM 82.8°F28.2°C 66.0°F18.9°C 57% Calm Calm 1.2 mph1.9 kmh 30.04 in1017.3 mb - 0.00 in0.0 mm 0.00 in0.0 mm
09:00 AM 83.4°F28.6°C 65.5°F18.6°C 55% 1.2 mph WNW1.9 kmh WNW 3.5 mph5.6 kmh 30.04 in1017.3 mb - 0.00 in0.0 mm 0.00 in0.0 mm
09:10 AM 84.0°F28.9°C 65.0°F18.3°C 53% 2.3 mph E3.7 kmh E 3.5 mph5.6 kmh 30.03 in1016.9 mb - 0.00 in0.0 mm 0.00 in0.0 mm
09:15 AM 84.0°F28.9°C 65.1°F18.4°C 53% Calm Calm 3.5 mph5.6 kmh 30.03 in1016.9 mb - 0.00 in0.0 mm 0.00 in0.0 mm
09:20 AM 84.8°F29.3°C 65.2°F18.4°C 52% 1.2 mph E1.9 kmh E 3.5 mph5.6 kmh 30.03 in1016.9 mb - 0.00 in0.0 mm 0.00 in0.0 mm
09:25 AM 85.0°F29.4°C 64.8°F18.2°C 51% 1.2 mph E1.9 kmh E 3.5 mph5.6 kmh 30.03 in1016.9 mb - 0.00 in0.0 mm 0.00 in0.0 mm
09:30 AM 85.5°F29.7°C 65.3°F18.5°C 51% 2.3 mph E3.7 kmh E 3.5 mph5.6 kmh 30.03 in1016.9 mb - 0.00 in0.0 mm 0.00 in0.0 mm
09:35 AM 85.9°F29.9°C 65.7°F18.7°C 51% Calm Calm 3.5 mph5.6 kmh 30.03 in1016.9 mb - 0.00 in0.0 mm 0.00 in0.0 mm
09:40 AM 86.0°F30.0°C 65.2°F18.4°C 50% Calm Calm 1.2 mph1.9 kmh 30.03 in1016.9 mb - 0.00 in0.0 mm 0.00 in0.0 mm
09:45 AM 86.9°F30.5°C 64.8°F18.2°C 48% 2.3 mph ENE3.7 kmh ENE 3.5 mph5.6 kmh 30.03 in1016.9 mb - 0.00 in0.0 mm 0.00 in0.0 mm
09:50 AM 86.8°F30.4°C 64.7°F18.2°C 48% Calm Calm 2.3 mph3.7 kmh 30.03 in1016.9 mb - 0.00 in0.0 mm 0.00 in0.0 mm
09:55 AM 86.9°F30.5°C 64.8°F18.2°C 48% 2.3 mph ENE3.7 kmh ENE 3.5 mph5.6 kmh 30.03 in1016.9 mb - 0.00 in0.0 mm 0.00 in0.0 mm
10:00 AM 87.0°F30.6°C 64.3°F17.9°C 47% 3.5 mph E5.6 kmh E 4.6 mph7.4 kmh 30.03 in1016.9 mb - 0.00 in0.0 mm 0.00 in0.0 mm
10:10 AM 86.5°F30.3°C 63.3°F17.4°C 46% 2.3 mph ENE3.7 kmh ENE 4.6 mph7.4 kmh 30.03 in1016.9 mb - 0.00 in0.0 mm 0.00 in0.0 mm
10:15 AM 86.8°F30.4°C 62.9°F17.2°C 45% 5.8 mph ENE9.3 kmh ENE 6.9 mph11.1 kmh 30.03 in1016.9 mb - 0.00 in0.0 mm 0.00 in0.0 mm
10:20 AM 87.0°F30.6°C 63.7°F17.6°C 46% 5.8 mph ENE9.3 kmh ENE 9.2 mph14.8 kmh 30.03 in1016.9 mb - 0.00 in0.0 mm 0.00 in0.0 mm
10:25 AM 87.1°F30.6°C 62.5°F16.9°C 44% 3.5 mph NNE5.6 kmh NNE 3.5 mph5.6 kmh 30.03 in1016.9 mb - 0.00 in0.0 mm 0.00 in0.0 mm
10:30 AM 87.3°F30.7°C 63.4°F17.4°C 45% 4.6 mph ENE7.4 kmh ENE 6.9 mph11.1 kmh 30.03 in1016.9 mb - 0.00 in0.0 mm 0.00 in0.0 mm
10:35 AM 87.4°F30.8°C 62.8°F17.1°C 44% 5.8 mph NE9.3 kmh NE 8.1 mph13.0 kmh 30.03 in1016.9 mb - 0.00 in0.0 mm 0.00 in0.0 mm
10:40 AM 87.5°F30.8°C 62.9°F17.2°C 44% 6.9 mph ENE11.1 kmh ENE 9.2 mph14.8 kmh 30.03 in1016.9 mb - 0.00 in0.0 mm 0.00 in0.0 mm
10:45 AM 87.4°F30.8°C 62.2°F16.8°C 43% 2.3 mph NNE3.7 kmh NNE 3.5 mph5.6 kmh 30.03 in1016.9 mb - 0.00 in0.0 mm 0.00 in0.0 mm
10:50 AM 87.9°F31.1°C 63.3°F17.4°C 44% 8.1 mph E13.0 kmh E 10.4 mph16.7 kmh 30.03 in1016.9 mb - 0.00 in0.0 mm 0.00 in0.0 mm
10:55 AM 87.6°F30.9°C 63.0°F17.2°C 44% 1.2 mph ENE1.9 kmh ENE 1.2 mph1.9 kmh 30.02 in1016.6 mb - 0.00 in0.0 mm 0.00 in0.0 mm
11:00 AM 88.0°F31.1°C 63.4°F17.4°C 44% 5.8 mph E9.3 kmh E 11.5 mph18.5 kmh 30.02 in1016.6 mb - 0.00 in0.0 mm 0.00 in0.0 mm
11:10 AM 88.1°F31.2°C 63.4°F17.4°C 44% 4.6 mph E7.4 kmh E 5.8 mph9.3 kmh 30.02 in1016.6 mb - 0.00 in0.0 mm 0.00 in0.0 mm
11:15 AM 88.1°F31.2°C 62.8°F17.1°C 43% 4.6 mph ENE7.4 kmh ENE 5.8 mph9.3 kmh 30.02 in1016.6 mb - 0.00 in0.0 mm 0.00 in0.0 mm
11:20 AM 88.3°F31.3°C 63.6°F17.6°C 44% 6.9 mph E11.1 kmh E 11.5 mph18.5 kmh 30.02 in1016.6 mb - 0.00 in0.0 mm 0.00 in0.0 mm
11:25 AM 88.4°F31.3°C 63.1°F17.3°C 43% 3.5 mph NE5.6 kmh NE 8.1 mph13.0 kmh 30.02 in1016.6 mb - 0.00 in0.0 mm 0.00 in0.0 mm
11:30 AM 88.6°F31.4°C 62.6°F17.0°C 42% 6.9 mph E11.1 kmh E 9.2 mph14.8 kmh 30.02 in1016.6 mb - 0.00 in0.0 mm 0.00 in0.0 mm
11:35 AM 88.9°F31.6°C 63.5°F17.5°C 43% 3.5 mph E5.6 kmh E 8.1 mph13.0 kmh 30.02 in1016.6 mb - 0.00 in0.0 mm 0.00 in0.0 mm
11:40 AM 88.9°F31.6°C 62.2°F16.8°C 41% 4.6 mph E7.4 kmh E 8.1 mph13.0 kmh 30.02 in1016.6 mb - 0.00 in0.0 mm 0.00 in0.0 mm
11:45 AM 88.9°F31.6°C 62.8°F17.1°C 42% 5.8 mph E9.3 kmh E 9.2 mph14.8 kmh 30.02 in1016.6 mb - 0.00 in0.0 mm 0.00 in0.0 mm
11:50 AM 89.3°F31.8°C 62.5°F16.9°C 41% 6.9 mph NE11.1 kmh NE 11.5 mph18.5 kmh 30.02 in1016.6 mb - 0.00 in0.0 mm 0.00 in0.0 mm
11:55 AM 89.5°F31.9°C 62.0°F16.7°C 40% 5.8 mph E9.3 kmh E 5.8 mph9.3 kmh 30.02 in1016.6 mb - 0.00 in0.0 mm 0.00 in0.0 mm
12:00 PM 89.8°F32.1°C 62.3°F16.8°C 40% 8.1 mph E13.0 kmh E 11.5 mph18.5 kmh 30.02 in1016.6 mb - 0.00 in0.0 mm 0.00 in0.0 mm
12:10 PM 89.6°F32.0°C 62.8°F17.1°C 41% 4.6 mph NE7.4 kmh NE 9.2 mph14.8 kmh 30.01 in1016.3 mb - 0.00 in0.0 mm 0.00 in0.0 mm
12:15 PM 89.9°F32.2°C 62.4°F16.9°C 40% 8.1 mph E13.0 kmh E 11.5 mph18.5 kmh 30.01 in1016.3 mb - 0.00 in0.0 mm 0.00 in0.0 mm
12:20 PM 90.0°F32.2°C 62.4°F16.9°C 40% 6.9 mph ENE11.1 kmh ENE 9.2 mph14.8 kmh 30.01 in1016.3 mb - 0.00 in0.0 mm 0.00 in0.0 mm
12:25 PM 89.8°F32.1°C 61.5°F16.4°C 39% 5.8 mph ESE9.3 kmh ESE 6.9 mph11.1 kmh 30.01 in1016.3 mb - 0.00 in0.0 mm 0.00 in0.0 mm
12:30 PM 90.1°F32.3°C 62.5°F16.9°C 40% 9.2 mph ENE14.8 kmh ENE 11.5 mph18.5 kmh 30.01 in1016.3 mb - 0.00 in0.0 mm 0.00 in0.0 mm
12:35 PM 90.2°F32.3°C 61.9°F16.6°C 39% 10.4 mph N16.7 kmh N 12.7 mph20.4 kmh 30.01 in1016.3 mb - 0.00 in0.0 mm 0.00 in0.0 mm
12:40 PM 90.4°F32.4°C 61.3°F16.3°C 38% 6.9 mph NNE11.1 kmh NNE 10.4 mph16.7 kmh 30.01 in1016.3 mb - 0.00 in0.0 mm 0.00 in0.0 mm
12:45 PM 90.6°F32.6°C 62.2°F16.8°C 39% 8.1 mph N13.0 kmh N 12.7 mph20.4 kmh 30.01 in1016.3 mb - 0.00 in0.0 mm 0.00 in0.0 mm
12:50 PM 90.6°F32.6°C 61.5°F16.4°C 38% 5.8 mph ENE9.3 kmh ENE 11.5 mph18.5 kmh 30.01 in1016.3 mb - 0.00 in0.0 mm 0.00 in0.0 mm
12:55 PM 90.3°F32.4°C 62.0°F16.7°C 39% 9.2 mph E14.8 kmh E 11.5 mph18.5 kmh 30.01 in1016.3 mb - 0.00 in0.0 mm 0.00 in0.0 mm
01:00 PM 90.3°F32.4°C 61.3°F16.3°C 38% 4.6 mph NE7.4 kmh NE 11.5 mph18.5 kmh 30.01 in1016.3 mb - 0.00 in0.0 mm 0.00 in0.0 mm
01:10 PM 90.7°F32.6°C 62.3°F16.8°C 39% 9.2 mph E14.8 kmh E 15.0 mph24.1 kmh 30.00 in1015.9 mb - 0.00 in0.0 mm 0.00 in0.0 mm
01:15 PM 90.5°F32.5°C 62.2°F16.8°C 39% 8.1 mph NE13.0 kmh NE 11.5 mph18.5 kmh 30.01 in1016.3 mb - 0.00 in0.0 mm 0.00 in0.0 mm
01:20 PM 90.5°F32.5°C 62.2°F16.8°C 39% 11.5 mph NE18.5 kmh NE 15.0 mph24.1 kmh 30.00 in1015.9 mb - 0.00 in0.0 mm 0.00 in0.0 mm
01:25 PM 90.5°F32.5°C 62.9°F17.2°C 40% 5.8 mph E9.3 kmh E 15.0 mph24.1 kmh 30.00 in1015.9 mb - 0.00 in0.0 mm 0.00 in0.0 mm
01:30 PM 90.7°F32.6°C 62.3°F16.8°C 39% 9.2 mph NE14.8 kmh NE 12.7 mph20.4 kmh 30.00 in1015.9 mb - 0.00 in0.0 mm 0.00 in0.0 mm
01:35 PM 91.0°F32.8°C 61.9°F16.6°C 38% 8.1 mph N13.0 kmh N 12.7 mph20.4 kmh 30.00 in1015.9 mb - 0.00 in0.0 mm 0.00 in0.0 mm
01:40 PM 91.3°F32.9°C 62.1°F16.7°C 38% 5.8 mph NNW9.3 kmh NNW 6.9 mph11.1 kmh 30.00 in1015.9 mb - 0.00 in0.0 mm 0.00 in0.0 mm
01:45 PM 91.5°F33.1°C 62.3°F16.8°C 38% 6.9 mph E11.1 kmh E 10.4 mph16.7 kmh 30.00 in1015.9 mb - 0.00 in0.0 mm 0.00 in0.0 mm
01:50 PM 91.4°F33.0°C 63.0°F17.2°C 39% 4.6 mph ENE7.4 kmh ENE 11.5 mph18.5 kmh 30.00 in1015.9 mb - 0.00 in0.0 mm 0.00 in0.0 mm
01:55 PM 91.6°F33.1°C 62.4°F16.9°C 38% 5.8 mph NE9.3 kmh NE 10.4 mph16.7 kmh 30.00 in1015.9 mb - 0.00 in0.0 mm 0.00 in0.0 mm
02:00 PM 91.8°F33.2°C 61.8°F16.6°C 37% 5.8 mph N9.3 kmh N 9.2 mph14.8 kmh 30.00 in1015.9 mb - 0.00 in0.0 mm 0.00 in0.0 mm
02:10 PM 92.1°F33.4°C 62.1°F16.7°C 37% 5.8 mph NNE9.3 kmh NNE 11.5 mph18.5 kmh 30.00 in1015.9 mb - 0.00 in0.0 mm 0.00 in0.0 mm
02:15 PM 91.8°F33.2°C 61.8°F16.6°C 37% 8.1 mph N13.0 kmh N 11.5 mph18.5 kmh 30.00 in1015.9 mb - 0.00 in0.0 mm 0.00 in0.0 mm
02:20 PM 91.9°F33.3°C 62.7°F17.1°C 38% 6.9 mph N11.1 kmh N 11.5 mph18.5 kmh 30.00 in1015.9 mb - 0.00 in0.0 mm 0.00 in0.0 mm
02:25 PM 92.1°F33.4°C 61.3°F16.3°C 36% 5.8 mph N9.3 kmh N 8.1 mph13.0 kmh 30.00 in1015.9 mb - 0.00 in0.0 mm 0.00 in0.0 mm
02:30 PM 92.1°F33.4°C 62.1°F16.7°C 37% 4.6 mph NE7.4 kmh NE 5.8 mph9.3 kmh 30.00 in1015.9 mb - 0.00 in0.0 mm 0.00 in0.0 mm
02:35 PM 92.2°F33.4°C 62.2°F16.8°C 37% 4.6 mph NE7.4 kmh NE 6.9 mph11.1 kmh 30.00 in1015.9 mb - 0.00 in0.0 mm 0.00 in0.0 mm
02:40 PM 92.1°F33.4°C 62.1°F16.7°C 37% 9.2 mph NNE14.8 kmh NNE 11.5 mph18.5 kmh 30.01 in1016.3 mb - 0.00 in0.0 mm 0.00 in0.0 mm
02:45 PM 92.1°F33.4°C 62.1°F16.7°C 37% 4.6 mph N7.4 kmh N 11.5 mph18.5 kmh 30.00 in1015.9 mb - 0.00 in0.0 mm 0.00 in0.0 mm
02:50 PM 92.0°F33.3°C 62.0°F16.7°C 37% 9.2 mph ENE14.8 kmh ENE 10.4 mph16.7 kmh 30.00 in1015.9 mb - 0.00 in0.0 mm 0.00 in0.0 mm
02:55 PM 91.7°F33.2°C 63.2°F17.3°C 39% 5.8 mph NE9.3 kmh NE 12.7 mph20.4 kmh 30.00 in1015.9 mb - 0.00 in0.0 mm 0.00 in0.0 mm
03:00 PM 91.6°F33.1°C 62.4°F16.9°C 38% 8.1 mph NE13.0 kmh NE 9.2 mph14.8 kmh 30.00 in1015.9 mb - 0.00 in0.0 mm 0.00 in0.0 mm
03:10 PM 91.4°F33.0°C 63.0°F17.2°C 39% 9.2 mph NE14.8 kmh NE 15.0 mph24.1 kmh 30.00 in1015.9 mb - 0.00 in0.0 mm 0.00 in0.0 mm
03:15 PM 91.3°F32.9°C 62.8°F17.1°C 39% 9.2 mph NNE14.8 kmh NNE 17.3 mph27.8 kmh 30.00 in1015.9 mb - 0.00 in0.0 mm 0.00 in0.0 mm
03:20 PM 91.4°F33.0°C 65.0°F18.3°C 42% 8.1 mph NE13.0 kmh NE 15.0 mph24.1 kmh 30.00 in1015.9 mb - 0.00 in0.0 mm 0.00 in0.0 mm
03:25 PM 91.4°F33.0°C 63.7°F17.6°C 40% 6.9 mph NE11.1 kmh NE 11.5 mph18.5 kmh 30.00 in1015.9 mb - 0.00 in0.0 mm 0.00 in0.0 mm
03:30 PM 91.2°F32.9°C 63.5°F17.5°C 40% 9.2 mph NE14.8 kmh NE 15.0 mph24.1 kmh 30.00 in1015.9 mb - 0.00 in0.0 mm 0.00 in0.0 mm
03:35 PM 91.1°F32.8°C 64.1°F17.8°C 41% 8.1 mph E13.0 kmh E 15.0 mph24.1 kmh 30.00 in1015.9 mb - 0.00 in0.0 mm 0.00 in0.0 mm
03:40 PM 91.2°F32.9°C 64.2°F17.9°C 41% 6.9 mph E11.1 kmh E 11.5 mph18.5 kmh 30.00 in1015.9 mb - 0.00 in0.0 mm 0.00 in0.0 mm
03:45 PM 91.2°F32.9°C 64.9°F18.3°C 42% 8.1 mph NE13.0 kmh NE 11.5 mph18.5 kmh 30.00 in1015.9 mb - 0.00 in0.0 mm 0.00 in0.0 mm
03:50 PM 91.2°F32.9°C 64.2°F17.9°C 41% 9.2 mph NE14.8 kmh NE 15.0 mph24.1 kmh 30.01 in1016.3 mb - 0.00 in0.0 mm 0.00 in0.0 mm
03:55 PM 91.2°F32.9°C 64.2°F17.9°C 41% 9.2 mph ENE14.8 kmh ENE 11.5 mph18.5 kmh 30.01 in1016.3 mb - 0.00 in0.0 mm 0.00 in0.0 mm
04:00 PM 91.0°F32.8°C 64.7°F18.2°C 42% 8.1 mph NE13.0 kmh NE 11.5 mph18.5 kmh 30.01 in1016.3 mb - 0.00 in0.0 mm 0.00 in0.0 mm
04:10 PM 90.8°F32.7°C 64.5°F18.1°C 42% 8.1 mph ENE13.0 kmh ENE 11.5 mph18.5 kmh 30.01 in1016.3 mb - 0.00 in0.0 mm 0.00 in0.0 mm
04:15 PM 90.9°F32.7°C 64.6°F18.1°C 42% 5.8 mph NE9.3 kmh NE 11.5 mph18.5 kmh 30.00 in1015.9 mb - 0.00 in0.0 mm 0.00 in0.0 mm
04:20 PM 90.8°F32.7°C 64.5°F18.1°C 42% 6.9 mph ENE11.1 kmh ENE 11.5 mph18.5 kmh 30.01 in1016.3 mb - 0.00 in0.0 mm 0.00 in0.0 mm
04:25 PM 90.8°F32.7°C 65.2°F18.4°C 43% 6.9 mph ENE11.1 kmh ENE 12.7 mph20.4 kmh 30.00 in1015.9 mb - 0.00 in0.0 mm 0.00 in0.0 mm
04:35 PM 90.6°F32.6°C 65.1°F18.4°C 43% 8.1 mph NE13.0 kmh NE 11.5 mph18.5 kmh 30.01 in1016.3 mb - 0.00 in0.0 mm 0.00 in0.0 mm
04:40 PM 90.9°F32.7°C 65.3°F18.5°C 43% 8.1 mph ENE13.0 kmh ENE 11.5 mph18.5 kmh 30.00 in1015.9 mb - 0.00 in0.0 mm 0.00 in0.0 mm
04:45 PM 90.8°F32.7°C 64.5°F18.1°C 42% 8.1 mph NE13.0 kmh NE 11.5 mph18.5 kmh 30.01 in1016.3 mb - 0.00 in0.0 mm 0.00 in0.0 mm
04:50 PM 90.7°F32.6°C 63.8°F17.7°C 41% 4.6 mph NE7.4 kmh NE 8.1 mph13.0 kmh 30.01 in1016.3 mb - 0.00 in0.0 mm 0.00 in0.0 mm
04:55 PM 90.6°F32.6°C 65.0°F18.3°C 43% 8.1 mph NE13.0 kmh NE 12.7 mph20.4 kmh 30.00 in1015.9 mb - 0.00 in0.0 mm 0.00 in0.0 mm
05:00 PM 90.4°F32.4°C 64.9°F18.3°C 43% 8.1 mph NE13.0 kmh NE 10.4 mph16.7 kmh 30.01 in1016.3 mb - 0.00 in0.0 mm 0.00 in0.0 mm
05:10 PM 90.3°F32.4°C 64.8°F18.2°C 43% 6.9 mph NE11.1 kmh NE 11.5 mph18.5 kmh 30.01 in1016.3 mb - 0.00 in0.0 mm 0.00 in0.0 mm
05:15 PM 90.4°F32.4°C 64.9°F18.3°C 43% 6.9 mph ENE11.1 kmh ENE 12.7 mph20.4 kmh 30.01 in1016.3 mb - 0.00 in0.0 mm 0.00 in0.0 mm
05:20 PM 90.1°F32.3°C 64.6°F18.1°C 43% 6.9 mph NE11.1 kmh NE 13.8 mph22.2 kmh 30.01 in1016.3 mb - 0.00 in0.0 mm 0.00 in0.0 mm
05:25 PM 90.0°F32.2°C 65.1°F18.4°C 44% 6.9 mph ENE11.1 kmh ENE 11.5 mph18.5 kmh 30.01 in1016.3 mb - 0.00 in0.0 mm 0.00 in0.0 mm
05:30 PM 90.0°F32.2°C 65.1°F18.4°C 44% 4.6 mph NE7.4 kmh NE 4.6 mph7.4 kmh 30.01 in1016.3 mb - 0.00 in0.0 mm 0.00 in0.0 mm
05:35 PM 89.9°F32.2°C 65.1°F18.4°C 44% 8.1 mph NE13.0 kmh NE 15.0 mph24.1 kmh 30.01 in1016.3 mb - 0.00 in0.0 mm 0.00 in0.0 mm
05:40 PM 89.8°F32.1°C 65.0°F18.3°C 44% 8.1 mph NE13.0 kmh NE 11.5 mph18.5 kmh 30.01 in1016.3 mb - 0.00 in0.0 mm 0.00 in0.0 mm
05:45 PM 89.8°F32.1°C 65.6°F18.7°C 45% 5.8 mph NE9.3 kmh NE 11.5 mph18.5 kmh 30.02 in1016.6 mb - 0.00 in0.0 mm 0.00 in0.0 mm
05:50 PM 89.5°F31.9°C 64.7°F18.2°C 44% 8.1 mph ENE13.0 kmh ENE 11.5 mph18.5 kmh 30.02 in1016.6 mb - 0.00 in0.0 mm 0.00 in0.0 mm
05:55 PM 89.1°F31.7°C 65.0°F18.3°C 45% 5.8 mph ENE9.3 kmh ENE 11.5 mph18.5 kmh 30.02 in1016.6 mb - 0.00 in0.0 mm 0.00 in0.0 mm
06:00 PM 89.0°F31.7°C 64.9°F18.3°C 45% 8.1 mph E13.0 kmh E 10.4 mph16.7 kmh 30.02 in1016.6 mb - 0.00 in0.0 mm 0.00 in0.0 mm
06:10 PM 88.6°F31.4°C 64.5°F18.1°C 45% 6.9 mph NE11.1 kmh NE 12.7 mph20.4 kmh 30.02 in1016.6 mb - 0.00 in0.0 mm 0.00 in0.0 mm
06:15 PM 88.5°F31.4°C 64.4°F18.0°C 45% 6.9 mph E11.1 kmh E 10.4 mph16.7 kmh 30.02 in1016.6 mb - 0.00 in0.0 mm 0.00 in0.0 mm
06:20 PM 88.3°F31.3°C 64.3°F17.9°C 45% 5.8 mph E9.3 kmh E 8.1 mph13.0 kmh 30.02 in1016.6 mb - 0.00 in0.0 mm 0.00 in0.0 mm
06:25 PM 88.1°F31.2°C 64.1°F17.8°C 45% 8.1 mph E13.0 kmh E 12.7 mph20.4 kmh 30.02 in1016.6 mb - 0.00 in0.0 mm 0.00 in0.0 mm
06:30 PM 87.9°F31.1°C 64.5°F18.1°C 46% 6.9 mph E11.1 kmh E 11.5 mph18.5 kmh 30.02 in1016.6 mb - 0.00 in0.0 mm 0.00 in0.0 mm
06:35 PM 87.7°F30.9°C 64.4°F18.0°C 46% 8.1 mph E13.0 kmh E 11.5 mph18.5 kmh 30.03 in1016.9 mb - 0.00 in0.0 mm 0.00 in0.0 mm
06:40 PM 87.5°F30.8°C 64.8°F18.2°C 47% 6.9 mph E11.1 kmh E 10.4 mph16.7 kmh 30.03 in1016.9 mb - 0.00 in0.0 mm 0.00 in0.0 mm
06:45 PM 87.4°F30.8°C 65.3°F18.5°C 48% 6.9 mph E11.1 kmh E 11.5 mph18.5 kmh 30.03 in1016.9 mb - 0.00 in0.0 mm 0.00 in0.0 mm
06:50 PM 87.3°F30.7°C 64.6°F18.1°C 47% 5.8 mph ENE9.3 kmh ENE 9.2 mph14.8 kmh 30.03 in1016.9 mb - 0.00 in0.0 mm 0.00 in0.0 mm
06:55 PM 87.1°F30.6°C 65.0°F18.3°C 48% 9.2 mph ENE14.8 kmh ENE 11.5 mph18.5 kmh 30.03 in1016.9 mb - 0.00 in0.0 mm 0.00 in0.0 mm
07:00 PM 86.9°F30.5°C 65.4°F18.6°C 49% 5.8 mph ENE9.3 kmh ENE 11.5 mph18.5 kmh 30.03 in1016.9 mb - 0.00 in0.0 mm 0.00 in0.0 mm
07:10 PM 86.7°F30.4°C 65.3°F18.5°C 49% 3.5 mph E5.6 kmh E 5.8 mph9.3 kmh 30.03 in1016.9 mb - 0.00 in0.0 mm 0.00 in0.0 mm
07:15 PM 86.5°F30.3°C 65.1°F18.4°C 49% 5.8 mph ENE9.3 kmh ENE 11.5 mph18.5 kmh 30.03 in1016.9 mb - 0.00 in0.0 mm 0.00 in0.0 mm
07:20 PM 86.3°F30.2°C 65.5°F18.6°C 50% 4.6 mph E7.4 kmh E 8.1 mph13.0 kmh 30.03 in1016.9 mb - 0.00 in0.0 mm 0.00 in0.0 mm
07:25 PM 86.0°F30.0°C 65.2°F18.4°C 50% 4.6 mph ENE7.4 kmh ENE 8.1 mph13.0 kmh 30.03 in1016.9 mb - 0.00 in0.0 mm 0.00 in0.0 mm
07:30 PM 85.6°F29.8°C 65.4°F18.6°C 51% 5.8 mph E9.3 kmh E 9.2 mph14.8 kmh 30.03 in1016.9 mb - 0.00 in0.0 mm 0.00 in0.0 mm
07:35 PM 85.3°F29.6°C 65.7°F18.7°C 52% 4.6 mph E7.4 kmh E 6.9 mph11.1 kmh 30.03 in1016.9 mb - 0.00 in0.0 mm 0.00 in0.0 mm
07:40 PM 85.0°F29.4°C 65.4°F18.6°C 52% 5.8 mph E9.3 kmh E 8.1 mph13.0 kmh 30.03 in1016.9 mb - 0.00 in0.0 mm 0.00 in0.0 mm
07:45 PM 84.7°F29.3°C 65.7°F18.7°C 53% 3.5 mph E5.6 kmh E 3.5 mph5.6 kmh 30.03 in1016.9 mb - 0.00 in0.0 mm 0.00 in0.0 mm
07:50 PM 84.4°F29.1°C 65.4°F18.6°C 53% 3.5 mph E5.6 kmh E 3.5 mph5.6 kmh 30.03 in1016.9 mb - 0.00 in0.0 mm 0.00 in0.0 mm
07:55 PM 84.1°F28.9°C 65.7°F18.7°C 54% 3.5 mph E5.6 kmh E 3.5 mph5.6 kmh 30.04 in1017.3 mb - 0.00 in0.0 mm 0.00 in0.0 mm
08:00 PM 83.8°F28.8°C 65.9°F18.8°C 55% 3.5 mph ENE5.6 kmh ENE 3.5 mph5.6 kmh 30.04 in1017.3 mb - 0.00 in0.0 mm 0.00 in0.0 mm
08:10 PM 83.3°F28.5°C 65.4°F18.6°C 55% 3.5 mph E5.6 kmh E 4.6 mph7.4 kmh 30.04 in1017.3 mb - 0.00 in0.0 mm 0.00 in0.0 mm
08:15 PM 83.1°F28.4°C 65.3°F18.5°C 55% 2.3 mph E3.7 kmh E 3.5 mph5.6 kmh 30.04 in1017.3 mb - 0.00 in0.0 mm 0.00 in0.0 mm
08:20 PM 83.0°F28.3°C 65.2°F18.4°C 55% 4.6 mph E7.4 kmh E 4.6 mph7.4 kmh 30.04 in1017.3 mb - 0.00 in0.0 mm 0.00 in0.0 mm
08:25 PM 82.9°F28.3°C 65.1°F18.4°C 55% 3.5 mph E5.6 kmh E 4.6 mph7.4 kmh 30.04 in1017.3 mb - 0.00 in0.0 mm 0.00 in0.0 mm
08:30 PM 82.9°F28.3°C 65.1°F18.4°C 55% 3.5 mph E5.6 kmh E 3.5 mph5.6 kmh 30.05 in1017.6 mb - 0.00 in0.0 mm 0.00 in0.0 mm
08:35 PM 82.8°F28.2°C 65.0°F18.3°C 55% 2.3 mph E3.7 kmh E 3.5 mph5.6 kmh 30.05 in1017.6 mb - 0.00 in0.0 mm 0.00 in0.0 mm
08:40 PM 82.6°F28.1°C 65.3°F18.5°C 56% 2.3 mph E3.7 kmh E 3.5 mph5.6 kmh 30.05 in1017.6 mb - 0.00 in0.0 mm 0.00 in0.0 mm
08:45 PM 82.4°F28.0°C 65.1°F18.4°C 56% 2.3 mph E3.7 kmh E 3.5 mph5.6 kmh 30.05 in1017.6 mb - 0.00 in0.0 mm 0.00 in0.0 mm
08:50 PM 82.2°F27.9°C 64.9°F18.3°C 56% Calm Calm 1.2 mph1.9 kmh 30.05 in1017.6 mb - 0.00 in0.0 mm 0.00 in0.0 mm
08:55 PM 82.0°F27.8°C 64.8°F18.2°C 56% Calm Calm 1.2 mph1.9 kmh 30.05 in1017.6 mb - 0.00 in0.0 mm 0.00 in0.0 mm
09:00 PM 81.8°F27.7°C 65.1°F18.4°C 57% Calm Calm -- 30.06 in1017.9 mb - 0.00 in0.0 mm 0.00 in0.0 mm
09:10 PM 81.4°F27.4°C 65.2°F18.4°C 58% 1.2 mph E1.9 kmh E 2.3 mph3.7 kmh 30.06 in1017.9 mb - 0.00 in0.0 mm 0.00 in0.0 mm
09:15 PM 81.2°F27.3°C 65.5°F18.6°C 59% Calm Calm -- 30.07 in1018.3 mb - 0.00 in0.0 mm 0.00 in0.0 mm
09:20 PM 80.9°F27.2°C 65.2°F18.4°C 59% Calm Calm -- 30.07 in1018.3 mb - 0.00 in0.0 mm 0.00 in0.0 mm
09:25 PM 80.6°F27.0°C 65.5°F18.6°C 60% Calm Calm -- 30.07 in1018.3 mb - 0.00 in0.0 mm 0.00 in0.0 mm
09:30 PM 80.2°F26.8°C 65.6°F18.7°C 61% 1.2 mph ESE1.9 kmh ESE 2.3 mph3.7 kmh 30.07 in1018.3 mb - 0.00 in0.0 mm 0.00 in0.0 mm
09:35 PM 80.0°F26.7°C 65.3°F18.5°C 61% Calm Calm 2.3 mph3.7 kmh 30.07 in1018.3 mb - 0.00 in0.0 mm 0.00 in0.0 mm
09:40 PM 79.7°F26.5°C 65.1°F18.4°C 61% 2.3 mph ESE3.7 kmh ESE 2.3 mph3.7 kmh 30.07 in1018.3 mb - 0.00 in0.0 mm 0.00 in0.0 mm
09:45 PM 79.3°F26.3°C 64.7°F18.2°C 61% 2.3 mph ESE3.7 kmh ESE 3.5 mph5.6 kmh 30.08 in1018.6 mb - 0.00 in0.0 mm 0.00 in0.0 mm
09:50 PM 78.8°F26.0°C 64.7°F18.2°C 62% 2.3 mph ESE3.7 kmh ESE 3.5 mph5.6 kmh 30.08 in1018.6 mb - 0.00 in0.0 mm 0.00 in0.0 mm
09:55 PM 78.6°F25.9°C 64.5°F18.1°C 62% 2.3 mph ESE3.7 kmh ESE 3.5 mph5.6 kmh 30.08 in1018.6 mb - 0.00 in0.0 mm 0.00 in0.0 mm
10:00 PM 78.5°F25.8°C 64.4°F18.0°C 62% 1.2 mph ESE1.9 kmh ESE 2.3 mph3.7 kmh 30.08 in1018.6 mb - 0.00 in0.0 mm 0.00 in0.0 mm
10:10 PM 78.4°F25.8°C 64.8°F18.2°C 63% Calm Calm -- 30.08 in1018.6 mb - 0.00 in0.0 mm 0.00 in0.0 mm
10:15 PM 78.3°F25.7°C 64.7°F18.2°C 63% 1.2 mph ESE1.9 kmh ESE 2.3 mph3.7 kmh 30.09 in1019.0 mb - 0.00 in0.0 mm 0.00 in0.0 mm
10:20 PM 78.2°F25.7°C 64.6°F18.1°C 63% 1.2 mph ESE1.9 kmh ESE 2.3 mph3.7 kmh 30.09 in1019.0 mb - 0.00 in0.0 mm 0.00 in0.0 mm
10:25 PM 77.9°F25.5°C 64.3°F17.9°C 63% 2.3 mph ESE3.7 kmh ESE 3.5 mph5.6 kmh 30.09 in1019.0 mb - 0.00 in0.0 mm 0.00 in0.0 mm
10:30 PM 77.7°F25.4°C 64.1°F17.8°C 63% Calm Calm 2.3 mph3.7 kmh 30.09 in1019.0 mb - 0.00 in0.0 mm 0.00 in0.0 mm
10:35 PM 77.4°F25.2°C 64.7°F18.2°C 65% 1.2 mph SE1.9 kmh SE 2.3 mph3.7 kmh 30.09 in1019.0 mb - 0.00 in0.0 mm 0.00 in0.0 mm
10:40 PM 77.1°F25.1°C 64.4°F18.0°C 65% Calm Calm 1.2 mph1.9 kmh 30.09 in1019.0 mb - 0.00 in0.0 mm 0.00 in0.0 mm
10:45 PM 76.9°F24.9°C 64.7°F18.2°C 66% 1.2 mph SE1.9 kmh SE 2.3 mph3.7 kmh 30.09 in1019.0 mb - 0.00 in0.0 mm 0.00 in0.0 mm
10:50 PM 76.6°F24.8°C 64.4°F18.0°C 66% 1.2 mph SE1.9 kmh SE 3.5 mph5.6 kmh 30.09 in1019.0 mb - 0.00 in0.0 mm 0.00 in0.0 mm
10:55 PM 76.3°F24.6°C 64.5°F18.1°C 67% 2.3 mph S3.7 kmh S 2.3 mph3.7 kmh 30.09 in1019.0 mb - 0.00 in0.0 mm 0.00 in0.0 mm
11:00 PM 76.0°F24.4°C 64.3°F17.9°C 67% 2.3 mph S3.7 kmh S 3.5 mph5.6 kmh 30.09 in1019.0 mb - 0.00 in0.0 mm 0.00 in0.0 mm
11:10 PM 75.5°F24.2°C 64.2°F17.9°C 68% Calm Calm -- 30.09 in1019.0 mb - 0.00 in0.0 mm 0.00 in0.0 mm
11:15 PM 75.3°F24.1°C 64.0°F17.8°C 68% Calm Calm 3.5 mph5.6 kmh 30.09 in1019.0 mb - 0.00 in0.0 mm 0.00 in0.0 mm
11:20 PM 75.1°F23.9°C 63.8°F17.7°C 68% 1.2 mph S1.9 kmh S 2.3 mph3.7 kmh 30.09 in1019.0 mb - 0.00 in0.0 mm 0.00 in0.0 mm
11:25 PM 74.8°F23.8°C 63.6°F17.6°C 68% Calm Calm -- 30.09 in1019.0 mb - 0.00 in0.0 mm 0.00 in0.0 mm
11:30 PM 74.7°F23.7°C 63.4°F17.4°C 68% Calm Calm 1.2 mph1.9 kmh 30.09 in1019.0 mb - 0.00 in0.0 mm 0.00 in0.0 mm
11:35 PM 74.6°F23.7°C 63.4°F17.4°C 68% 1.2 mph S1.9 kmh S 2.3 mph3.7 kmh 30.09 in1019.0 mb - 0.00 in0.0 mm 0.00 in0.0 mm
11:40 PM 74.5°F23.6°C 62.8°F17.1°C 67% 1.2 mph S1.9 kmh S 2.3 mph3.7 kmh 30.09 in1019.0 mb - 0.00 in0.0 mm 0.00 in0.0 mm
11:45 PM 74.5°F23.6°C 63.2°F17.3°C 68% 1.2 mph S1.9 kmh S 2.3 mph3.7 kmh 30.09 in1019.0 mb - 0.00 in0.0 mm 0.00 in0.0 mm
11:50 PM 74.3°F23.5°C 63.1°F17.3°C 68% 1.2 mph S1.9 kmh S 3.5 mph5.6 kmh 30.10 in1019.3 mb - 0.00 in0.0 mm 0.00 in0.0 mm
11:55 PM 74.1°F23.4°C 62.9°F17.2°C 68% 2.3 mph S3.7 kmh S 2.3 mph3.7 kmh 30.10 in1019.3 mb - 0.00 in0.0 mm 0.00 in0.0 mm